»·PEaware :: DAL1948 KBOI-KSLC

DAL1948 :: KBOI-KSLC

FLIGHT INFORMATION

Flight Status: Arrived
Operator:
Delta Air Lines
More flights by this operator :: More flights under this callsign
Pilot: Sanjiv S. (4490)
Aircraft: BOEING 737-800
(B738)
More flights by this aircraft type
Origin: KBOI Boise Air Terminal/Gowen
United States
Destination: KSLC Salt Lake City Intl
United States
More flights between these airports :: More routes between these airports
Route: BOI3 ROARR BYI SKEES5
File this flight plan on PilotEdge
Remarks:
Altitude:
(Current/Filed)
27,000ft
Speed:
(Current/Filed)
420kts
Departed: 06-Mar-18 09:17 AM
Arrived: 06-Mar-18 10:01 AM
Distance/Time
Traveled:
252nm/0:44
Distance/Time
To Go:
Arrived

Flight Plot

Page will automatically refresh every two minutes.

Flight plan parsing failed; only flown route is shown


Map Options




Map Legend


Flown Route
Filed Route
Departure Airport
Arrival Airport
Navaid (VOR, NDB)
Fix

Horizontal Profiles

Position Reports

Time Latitude Longitude Heading Altitude Ground
Speed
06-Mar-18 09:03 43.566641 -116.217975 318 2850ft 0kts
06-Mar-18 09:04 43.566641 -116.217975 318 2850ft 0kts
06-Mar-18 09:05 43.566641 -116.217975 318 2850ft 0kts
06-Mar-18 09:06 43.566641 -116.217975 318 2850ft 0kts
06-Mar-18 09:07 43.566641 -116.217975 318 2850ft 0kts
06-Mar-18 09:08 43.566641 -116.217975 318 2850ft 0kts
06-Mar-18 09:09 43.566641 -116.217975 318 2850ft 0kts
06-Mar-18 09:10 43.566641 -116.217975 318 2850ft 0kts
06-Mar-18 09:11 43.566641 -116.217975 318 2850ft 0kts
06-Mar-18 09:12 43.566614 -116.217942 319 2850ft 2kts
06-Mar-18 09:13 43.566278 -116.217369 262 2850ft 2kts
06-Mar-18 09:14 43.566587 -116.217082 174 2850ft 0kts
06-Mar-18 09:15 43.566587 -116.217082 174 2850ft 0kts
06-Mar-18 09:16 43.566575 -116.217081 174 2850ft 0kts
06-Mar-18 09:17 43.565789 -116.216920 171 2850ft 5kts
06-Mar-18 09:18 43.565279 -116.218777 295 2850ft 15kts
06-Mar-18 09:19 43.566403 -116.222069 294 2850ft 12kts
06-Mar-18 09:20 43.568712 -116.228924 297 2850ft 22kts
06-Mar-18 09:21 43.570849 -116.235703 249 2850ft 0kts
06-Mar-18 09:22 43.570849 -116.235703 249 2850ft 0kts
06-Mar-18 09:23 43.569811 -116.235575 116 2850ft 10kts
06-Mar-18 09:24 43.565319 -116.222398 115 2850ft 134kts
06-Mar-18 09:25 43.550843 -116.164602 111 5303ft 151kts
06-Mar-18 09:26 43.535595 -116.099205 111 6503ft 223kts
06-Mar-18 09:27 43.511313 -116.007783 117 8569ft 280kts
06-Mar-18 09:28 43.476933 -115.906593 116 11160ft 311kts
06-Mar-18 09:29 43.436873 -115.789577 116 13259ft 357kts
06-Mar-18 09:30 43.393453 -115.663093 116 15861ft 379kts
06-Mar-18 09:31 43.347722 -115.530505 116 16892ft 387kts
06-Mar-18 09:32 43.300100 -115.393033 116 19242ft 409kts
06-Mar-18 09:33 43.242887 -115.262452 125 21369ft 426kts
06-Mar-18 09:34 43.177519 -115.122531 125 23466ft 445kts
06-Mar-18 09:35 43.110317 -114.978569 124 25486ft 459kts
06-Mar-18 09:36 43.040458 -114.829530 124 27335ft 467kts
06-Mar-18 09:37 42.967278 -114.674327 124 27399ft 511kts
06-Mar-18 09:38 42.891425 -114.514139 124 27381ft 523kts
06-Mar-18 09:39 42.813224 -114.349951 125 27391ft 518kts
06-Mar-18 09:40 42.745357 -114.207964 125 27379ft 517kts
06-Mar-18 09:41 42.673448 -114.058478 125 27382ft 517kts
06-Mar-18 09:42 42.594715 -113.895702 125 27384ft 517kts
06-Mar-18 09:43 42.498782 -113.755127 140 27387ft 511kts
06-Mar-18 09:44 42.397411 -113.621025 139 27389ft 512kts
06-Mar-18 09:45 42.295718 -113.485790 139 27392ft 512kts
06-Mar-18 09:46 42.194792 -113.352207 139 27394ft 511kts
06-Mar-18 09:47 42.101673 -113.229357 139 27382ft 509kts
06-Mar-18 09:48 42.007357 -113.105509 140 26127ft 464kts
06-Mar-18 09:49 41.916925 -112.987430 139 23955ft 446kts
06-Mar-18 09:50 41.863712 -112.918159 139 22638ft 435kts
06-Mar-18 09:51 41.780108 -112.809636 138 20997ft 409kts
06-Mar-18 09:52 41.704215 -112.711493 138 19271ft 394kts
06-Mar-18 09:53 41.627497 -112.612618 137 17538ft 378kts
06-Mar-18 09:54 41.553526 -112.517614 137 16012ft 360kts
06-Mar-18 09:55 41.478839 -112.439704 141 15162ft 359kts
06-Mar-18 09:56 41.414622 -112.345690 132 13943ft 349kts
06-Mar-18 09:57 41.354991 -112.257357 132 12998ft 318kts
06-Mar-18 09:58 41.298399 -112.174053 133 12804ft 292kts
06-Mar-18 09:59 41.247293 -112.099653 133 11743ft 284kts
06-Mar-18 10:00 41.196254 -112.026572 147 10989ft 256kts
06-Mar-18 10:01 41.131113 -112.015375 176 11000ft 244kts
06-Mar-18 10:02 41.063026 -112.006886 175 10187ft 246kts
06-Mar-18 10:03 40.997235 -111.999130 173 8553ft 219kts
06-Mar-18 10:04 40.940887 -111.992482 172 6770ft 192kts
06-Mar-18 10:05 40.896087 -111.987395 171 5604ft 155kts
06-Mar-18 10:06 40.857175 -111.982378 171 5118ft 150kts
06-Mar-18 10:07 40.816671 -111.977880 172 4521ft 148kts
06-Mar-18 10:08 40.787673 -111.974638 177 4235ft 40kts
06-Mar-18 10:09 40.785685 -111.976580 353 4234ft 2kts
06-Mar-18 10:10 40.786008 -111.976627 353 4235ft 0kts
06-Mar-18 10:11 40.787124 -111.976747 356 4234ft 11kts
06-Mar-18 10:12 40.789721 -111.978033 268 4234ft 5kts
06-Mar-18 10:13 40.789369 -111.980356 231 4234ft 6kts
06-Mar-18 10:14 40.789105 -111.980761 228 4234ft 0kts
06-Mar-18 10:15 40.789105 -111.980761 228 4234ft 0kts
06-Mar-18 10:16 40.789105 -111.980761 228 4234ft 0kts
06-Mar-18 10:17 40.789105 -111.980761 228 4234ft 0kts

Navigation Log

Ident Type
Flight plan parsing failed, navigation log unavailable